sensor_id;sensor_type;location;lat;lon;timestamp;P1;durP1;ratioP1;P2;durP2;ratioP2
73239;SDS011;61452;40.054;4.110;2023-10-13T00:01:23;9.70;;;5.63;;
73239;SDS011;61452;40.054;4.110;2023-10-13T00:06:26;13.38;;;6.00;;
73239;SDS011;61452;40.054;4.110;2023-10-13T00:11:28;11.63;;;5.43;;
73239;SDS011;61452;40.054;4.110;2023-10-13T00:16:30;11.75;;;5.53;;
73239;SDS011;61452;40.054;4.110;2023-10-13T00:21:36;10.98;;;4.53;;
73239;SDS011;61452;40.054;4.110;2023-10-13T00:26:39;8.70;;;4.82;;
73239;SDS011;61452;40.054;4.110;2023-10-13T00:31:44;11.40;;;5.38;;
73239;SDS011;61452;40.054;4.110;2023-10-13T00:36:50;8.15;;;5.40;;
73239;SDS011;61452;40.054;4.110;2023-10-13T00:42:12;10.48;;;4.88;;
73239;SDS011;61452;40.054;4.110;2023-10-13T00:47:22;12.40;;;5.55;;
73239;SDS011;61452;40.054;4.110;2023-10-13T00:52:40;12.27;;;5.10;;
73239;SDS011;61452;40.054;4.110;2023-10-13T00:57:44;12.07;;;4.85;;
73239;SDS011;61452;40.054;4.110;2023-10-13T01:02:48;8.40;;;4.47;;
73239;SDS011;61452;40.054;4.110;2023-10-13T01:08:01;9.73;;;4.70;;
73239;SDS011;61452;40.054;4.110;2023-10-13T01:13:03;9.52;;;4.35;;
73239;SDS011;61452;40.054;4.110;2023-10-13T01:18:09;14.43;;;4.90;;
73239;SDS011;61452;40.054;4.110;2023-10-13T01:23:16;9.65;;;4.18;;
73239;SDS011;61452;40.054;4.110;2023-10-13T01:28:22;9.88;;;4.20;;
73239;SDS011;61452;40.054;4.110;2023-10-13T01:33:26;11.93;;;5.30;;
73239;SDS011;61452;40.054;4.110;2023-10-13T01:38:29;9.55;;;4.60;;
73239;SDS011;61452;40.054;4.110;2023-10-13T01:43:35;11.13;;;5.10;;
73239;SDS011;61452;40.054;4.110;2023-10-13T01:48:37;10.05;;;5.15;;
73239;SDS011;61452;40.054;4.110;2023-10-13T01:53:42;8.43;;;4.53;;
73239;SDS011;61452;40.054;4.110;2023-10-13T01:58:44;13.60;;;4.72;;
73239;SDS011;61452;40.054;4.110;2023-10-13T02:03:49;9.68;;;4.78;;
73239;SDS011;61452;40.054;4.110;2023-10-13T02:09:04;9.25;;;4.78;;
73239;SDS011;61452;40.054;4.110;2023-10-13T02:14:12;12.27;;;4.43;;
73239;SDS011;61452;40.054;4.110;2023-10-13T02:19:18;8.80;;;5.05;;
73239;SDS011;61452;40.054;4.110;2023-10-13T02:24:21;10.98;;;4.90;;
73239;SDS011;61452;40.054;4.110;2023-10-13T02:29:31;10.93;;;4.57;;
73239;SDS011;61452;40.054;4.110;2023-10-13T02:34:40;7.80;;;4.32;;
73239;SDS011;61452;40.054;4.110;2023-10-13T02:39:45;8.02;;;4.38;;
73239;SDS011;61452;40.054;4.110;2023-10-13T02:44:48;10.43;;;5.00;;
73239;SDS011;61452;40.054;4.110;2023-10-13T02:49:50;10.73;;;5.05;;
73239;SDS011;61452;40.054;4.110;2023-10-13T02:54:53;8.18;;;4.07;;
73239;SDS011;61452;40.054;4.110;2023-10-13T02:59:55;11.93;;;4.20;;
73239;SDS011;61452;40.054;4.110;2023-10-13T03:05:00;10.73;;;4.50;;
73239;SDS011;61452;40.054;4.110;2023-10-13T03:10:11;12.65;;;5.82;;
73239;SDS011;61452;40.054;4.110;2023-10-13T03:15:14;10.52;;;4.43;;
73239;SDS011;61452;40.054;4.110;2023-10-13T03:20:19;11.07;;;4.32;;
73239;SDS011;61452;40.054;4.110;2023-10-13T03:25:32;8.60;;;4.15;;
73239;SDS011;61452;40.054;4.110;2023-10-13T03:30:44;8.93;;;4.20;;
73239;SDS011;61452;40.054;4.110;2023-10-13T03:35:48;11.07;;;4.45;;
73239;SDS011;61452;40.054;4.110;2023-10-13T03:40:55;9.82;;;4.00;;
73239;SDS011;61452;40.054;4.110;2023-10-13T03:46:20;9.90;;;4.10;;
73239;SDS011;61452;40.054;4.110;2023-10-13T03:51:24;7.72;;;3.60;;
73239;SDS011;61452;40.054;4.110;2023-10-13T03:56:33;8.57;;;3.90;;
73239;SDS011;61452;40.054;4.110;2023-10-13T04:01:42;8.27;;;3.50;;
73239;SDS011;61452;40.054;4.110;2023-10-13T04:06:53;11.73;;;3.90;;
73239;SDS011;61452;40.054;4.110;2023-10-13T04:12:14;8.63;;;3.97;;
73239;SDS011;61452;40.054;4.110;2023-10-13T04:17:28;8.70;;;3.88;;
73239;SDS011;61452;40.054;4.110;2023-10-13T04:27:51;6.45;;;3.50;;
73239;SDS011;61452;40.054;4.110;2023-10-13T04:33:13;8.95;;;4.22;;
73239;SDS011;61452;40.054;4.110;2023-10-13T04:38:34;11.85;;;4.07;;
73239;SDS011;61452;40.054;4.110;2023-10-13T04:43:59;11.05;;;3.97;;
73239;SDS011;61452;40.054;4.110;2023-10-13T04:49:24;10.63;;;3.92;;
73239;SDS011;61452;40.054;4.110;2023-10-13T04:54:46;10.48;;;4.07;;
73239;SDS011;61452;40.054;4.110;2023-10-13T04:59:56;7.30;;;3.78;;
73239;SDS011;61452;40.054;4.110;2023-10-13T05:05:14;7.15;;;3.65;;
73239;SDS011;61452;40.054;4.110;2023-10-13T05:10:17;9.07;;;4.40;;
73239;SDS011;61452;40.054;4.110;2023-10-13T05:15:47;10.48;;;4.10;;
73239;SDS011;61452;40.054;4.110;2023-10-13T05:21:09;8.52;;;4.00;;
73239;SDS011;61452;40.054;4.110;2023-10-13T05:26:29;9.25;;;3.88;;
73239;SDS011;61452;40.054;4.110;2023-10-13T05:31:50;6.47;;;3.95;;
73239;SDS011;61452;40.054;4.110;2023-10-13T05:37:11;9.25;;;4.18;;
73239;SDS011;61452;40.054;4.110;2023-10-13T05:42:31;9.93;;;3.92;;
73239;SDS011;61452;40.054;4.110;2023-10-13T05:47:52;8.30;;;4.22;;
73239;SDS011;61452;40.054;4.110;2023-10-13T05:53:13;7.03;;;3.65;;
73239;SDS011;61452;40.054;4.110;2023-10-13T05:58:15;9.98;;;3.78;;
73239;SDS011;61452;40.054;4.110;2023-10-13T06:03:36;11.00;;;4.53;;
73239;SDS011;61452;40.054;4.110;2023-10-13T06:08:57;10.32;;;4.40;;
73239;SDS011;61452;40.054;4.110;2023-10-13T06:14:26;10.88;;;4.70;;
73239;SDS011;61452;40.054;4.110;2023-10-13T06:20:06;9.80;;;4.22;;
73239;SDS011;61452;40.054;4.110;2023-10-13T06:30:55;10.68;;;4.72;;
73239;SDS011;61452;40.054;4.110;2023-10-13T06:36:01;8.23;;;4.47;;
73239;SDS011;61452;40.054;4.110;2023-10-13T06:41:07;9.43;;;4.70;;
73239;SDS011;61452;40.054;4.110;2023-10-13T06:46:10;10.13;;;4.82;;
73239;SDS011;61452;40.054;4.110;2023-10-13T06:51:16;10.98;;;4.50;;
73239;SDS011;61452;40.054;4.110;2023-10-13T06:56:27;10.63;;;5.55;;
73239;SDS011;61452;40.054;4.110;2023-10-13T07:01:30;9.20;;;4.32;;
73239;SDS011;61452;40.054;4.110;2023-10-13T07:06:41;9.77;;;4.60;;
73239;SDS011;61452;40.054;4.110;2023-10-13T07:11:50;12.85;;;4.97;;
73239;SDS011;61452;40.054;4.110;2023-10-13T07:17:01;12.68;;;5.07;;
73239;SDS011;61452;40.054;4.110;2023-10-13T07:22:07;12.90;;;5.70;;
73239;SDS011;61452;40.054;4.110;2023-10-13T07:27:22;13.98;;;6.00;;
73239;SDS011;61452;40.054;4.110;2023-10-13T07:32:25;14.38;;;6.13;;
73239;SDS011;61452;40.054;4.110;2023-10-13T07:37:27;25.27;;;15.32;;
73239;SDS011;61452;40.054;4.110;2023-10-13T07:42:31;28.20;;;14.50;;
73239;SDS011;61452;40.054;4.110;2023-10-13T07:47:41;17.55;;;7.78;;
73239;SDS011;61452;40.054;4.110;2023-10-13T07:52:43;12.85;;;6.40;;
73239;SDS011;61452;40.054;4.110;2023-10-13T07:58:00;12.68;;;6.47;;
73239;SDS011;61452;40.054;4.110;2023-10-13T08:03:09;15.50;;;7.15;;
73239;SDS011;61452;40.054;4.110;2023-10-13T08:08:18;14.13;;;6.75;;
73239;SDS011;61452;40.054;4.110;2023-10-13T08:13:20;14.90;;;6.18;;
73239;SDS011;61452;40.054;4.110;2023-10-13T08:23:35;17.90;;;6.75;;
73239;SDS011;61452;40.054;4.110;2023-10-13T08:28:58;8.02;;;5.15;;
73239;SDS011;61452;40.054;4.110;2023-10-13T08:34:24;11.13;;;5.00;;
73239;SDS011;61452;40.054;4.110;2023-10-13T08:39:31;13.10;;;4.97;;
73239;SDS011;61452;40.054;4.110;2023-10-13T08:44:52;10.00;;;6.05;;
73239;SDS011;61452;40.054;4.110;2023-10-13T08:49:54;12.23;;;5.97;;
73239;SDS011;61452;40.054;4.110;2023-10-13T08:55:12;11.85;;;6.20;;
73239;SDS011;61452;40.054;4.110;2023-10-13T09:00:34;11.00;;;5.50;;
73239;SDS011;61452;40.054;4.110;2023-10-13T09:05:55;11.45;;;5.82;;
73239;SDS011;61452;40.054;4.110;2023-10-13T09:11:07;11.75;;;6.20;;
73239;SDS011;61452;40.054;4.110;2023-10-13T09:16:14;16.55;;;9.07;;
73239;SDS011;61452;40.054;4.110;2023-10-13T09:21:38;14.57;;;8.45;;
73239;SDS011;61452;40.054;4.110;2023-10-13T09:26:44;16.17;;;8.20;;
73239;SDS011;61452;40.054;4.110;2023-10-13T09:32:08;15.02;;;7.43;;
73239;SDS011;61452;40.054;4.110;2023-10-13T09:37:14;17.27;;;8.57;;
73239;SDS011;61452;40.054;4.110;2023-10-13T09:42:22;19.52;;;7.88;;
73239;SDS011;61452;40.054;4.110;2023-10-13T09:47:28;20.35;;;8.25;;
73239;SDS011;61452;40.054;4.110;2023-10-13T09:52:39;18.52;;;8.35;;
73239;SDS011;61452;40.054;4.110;2023-10-13T09:57:46;15.35;;;8.02;;
73239;SDS011;61452;40.054;4.110;2023-10-13T10:02:59;15.93;;;7.63;;
73239;SDS011;61452;40.054;4.110;2023-10-13T10:08:30;14.88;;;7.38;;
73239;SDS011;61452;40.054;4.110;2023-10-13T10:19:00;13.25;;;6.70;;
73239;SDS011;61452;40.054;4.110;2023-10-13T10:24:16;13.90;;;6.95;;
73239;SDS011;61452;40.054;4.110;2023-10-13T10:29:32;14.30;;;6.53;;
73239;SDS011;61452;40.054;4.110;2023-10-13T10:34:34;10.73;;;5.90;;
73239;SDS011;61452;40.054;4.110;2023-10-13T10:39:37;12.63;;;5.60;;
73239;SDS011;61452;40.054;4.110;2023-10-13T10:44:51;9.95;;;5.78;;
73239;SDS011;61452;40.054;4.110;2023-10-13T10:50:24;8.80;;;4.82;;
73239;SDS011;61452;40.054;4.110;2023-10-13T10:55:36;10.45;;;4.65;;
73239;SDS011;61452;40.054;4.110;2023-10-13T11:00:39;11.80;;;4.28;;
73239;SDS011;61452;40.054;4.110;2023-10-13T11:05:48;12.57;;;4.20;;
73239;SDS011;61452;40.054;4.110;2023-10-13T11:10:51;12.07;;;3.58;;
73239;SDS011;61452;40.054;4.110;2023-10-13T11:15:54;11.45;;;3.38;;
73239;SDS011;61452;40.054;4.110;2023-10-13T11:20:58;10.55;;;3.35;;
73239;SDS011;61452;40.054;4.110;2023-10-13T11:26:01;9.88;;;2.90;;
73239;SDS011;61452;40.054;4.110;2023-10-13T11:31:04;6.85;;;2.97;;
73239;SDS011;61452;40.054;4.110;2023-10-13T11:36:12;12.73;;;5.00;;
73239;SDS011;61452;40.054;4.110;2023-10-13T11:41:19;7.25;;;4.28;;
73239;SDS011;61452;40.054;4.110;2023-10-13T11:46:22;13.38;;;5.32;;
73239;SDS011;61452;40.054;4.110;2023-10-13T11:51:39;13.95;;;5.20;;
73239;SDS011;61452;40.054;4.110;2023-10-13T11:56:48;10.85;;;4.72;;
73239;SDS011;61452;40.054;4.110;2023-10-13T12:01:51;12.98;;;4.90;;
73239;SDS011;61452;40.054;4.110;2023-10-13T12:07:12;10.00;;;4.30;;
73239;SDS011;61452;40.054;4.110;2023-10-13T12:12:24;6.95;;;3.90;;
73239;SDS011;61452;40.054;4.110;2023-10-13T12:17:28;11.55;;;3.78;;
73239;SDS011;61452;40.054;4.110;2023-10-13T12:22:37;11.13;;;4.70;;
73239;SDS011;61452;40.054;4.110;2023-10-13T12:27:45;10.18;;;5.20;;
73239;SDS011;61452;40.054;4.110;2023-10-13T12:32:50;9.57;;;4.53;;
73239;SDS011;61452;40.054;4.110;2023-10-13T12:38:10;12.07;;;4.78;;
73239;SDS011;61452;40.054;4.110;2023-10-13T12:43:38;12.95;;;4.45;;
73239;SDS011;61452;40.054;4.110;2023-10-13T12:48:59;9.35;;;4.65;;
73239;SDS011;61452;40.054;4.110;2023-10-13T12:54:17;12.30;;;5.15;;
73239;SDS011;61452;40.054;4.110;2023-10-13T12:59:25;9.15;;;4.85;;
73239;SDS011;61452;40.054;4.110;2023-10-13T13:04:28;11.38;;;4.80;;
73239;SDS011;61452;40.054;4.110;2023-10-13T13:09:39;16.95;;;5.53;;
73239;SDS011;61452;40.054;4.110;2023-10-13T13:14:44;19.80;;;12.85;;
73239;SDS011;61452;40.054;4.110;2023-10-13T13:19:48;12.15;;;7.28;;
73239;SDS011;61452;40.054;4.110;2023-10-13T13:24:50;15.55;;;7.28;;
73239;SDS011;61452;40.054;4.110;2023-10-13T13:29:54;17.20;;;7.25;;
73239;SDS011;61452;40.054;4.110;2023-10-13T13:34:58;11.00;;;7.22;;
73239;SDS011;61452;40.054;4.110;2023-10-13T13:40:06;12.55;;;6.93;;
73239;SDS011;61452;40.054;4.110;2023-10-13T13:45:19;14.65;;;7.00;;
73239;SDS011;61452;40.054;4.110;2023-10-13T13:50:31;12.23;;;7.20;;
73239;SDS011;61452;40.054;4.110;2023-10-13T13:55:40;12.65;;;7.05;;
73239;SDS011;61452;40.054;4.110;2023-10-13T14:00:42;10.63;;;6.75;;
73239;SDS011;61452;40.054;4.110;2023-10-13T14:05:50;13.98;;;6.88;;
73239;SDS011;61452;40.054;4.110;2023-10-13T14:10:53;9.75;;;6.45;;
73239;SDS011;61452;40.054;4.110;2023-10-13T14:21:19;18.65;;;8.98;;
73239;SDS011;61452;40.054;4.110;2023-10-13T14:26:21;24.20;;;16.85;;
73239;SDS011;61452;40.054;4.110;2023-10-13T14:31:27;17.95;;;11.98;;
73239;SDS011;61452;40.054;4.110;2023-10-13T14:36:30;15.32;;;10.38;;
73239;SDS011;61452;40.054;4.110;2023-10-13T14:41:37;21.42;;;10.90;;
73239;SDS011;61452;40.054;4.110;2023-10-13T14:46:42;60.95;;;39.28;;
73239;SDS011;61452;40.054;4.110;2023-10-13T14:51:44;29.92;;;18.13;;
73239;SDS011;61452;40.054;4.110;2023-10-13T14:56:46;21.98;;;14.23;;
73239;SDS011;61452;40.054;4.110;2023-10-13T15:01:49;18.25;;;11.95;;
73239;SDS011;61452;40.054;4.110;2023-10-13T15:06:51;19.00;;;9.65;;
73239;SDS011;61452;40.054;4.110;2023-10-13T15:11:53;14.30;;;8.43;;
73239;SDS011;61452;40.054;4.110;2023-10-13T15:16:55;15.63;;;10.15;;
73239;SDS011;61452;40.054;4.110;2023-10-13T15:22:03;44.22;;;29.02;;
73239;SDS011;61452;40.054;4.110;2023-10-13T15:27:07;21.45;;;12.50;;
73239;SDS011;61452;40.054;4.110;2023-10-13T15:32:10;15.35;;;8.88;;
73239;SDS011;61452;40.054;4.110;2023-10-13T15:37:31;14.77;;;7.50;;
73239;SDS011;61452;40.054;4.110;2023-10-13T15:42:33;14.25;;;8.07;;
73239;SDS011;61452;40.054;4.110;2023-10-13T15:47:35;14.50;;;7.63;;
73239;SDS011;61452;40.054;4.110;2023-10-13T15:52:41;10.95;;;6.70;;
73239;SDS011;61452;40.054;4.110;2023-10-13T15:57:47;19.05;;;11.73;;
73239;SDS011;61452;40.054;4.110;2023-10-13T16:02:56;19.20;;;14.10;;
73239;SDS011;61452;40.054;4.110;2023-10-13T16:07:59;27.88;;;16.20;;
73239;SDS011;61452;40.054;4.110;2023-10-13T16:13:03;18.45;;;11.82;;
73239;SDS011;61452;40.054;4.110;2023-10-13T16:18:07;19.95;;;10.48;;
73239;SDS011;61452;40.054;4.110;2023-10-13T16:23:09;15.48;;;8.27;;
73239;SDS011;61452;40.054;4.110;2023-10-13T16:28:11;13.05;;;8.55;;
73239;SDS011;61452;40.054;4.110;2023-10-13T16:33:14;13.65;;;7.20;;
73239;SDS011;61452;40.054;4.110;2023-10-13T16:38:16;11.90;;;7.75;;
73239;SDS011;61452;40.054;4.110;2023-10-13T16:43:19;13.57;;;6.60;;
73239;SDS011;61452;40.054;4.110;2023-10-13T16:53:24;17.25;;;10.48;;
73239;SDS011;61452;40.054;4.110;2023-10-13T16:58:26;16.92;;;10.00;;
73239;SDS011;61452;40.054;4.110;2023-10-13T17:03:29;14.50;;;9.48;;
73239;SDS011;61452;40.054;4.110;2023-10-13T17:08:32;15.13;;;8.95;;
73239;SDS011;61452;40.054;4.110;2023-10-13T17:13:38;15.95;;;7.53;;
73239;SDS011;61452;40.054;4.110;2023-10-13T17:18:43;14.05;;;8.32;;
73239;SDS011;61452;40.054;4.110;2023-10-13T17:23:47;13.10;;;7.93;;
73239;SDS011;61452;40.054;4.110;2023-10-13T17:28:54;16.30;;;9.55;;
73239;SDS011;61452;40.054;4.110;2023-10-13T17:34:00;20.52;;;9.18;;
73239;SDS011;61452;40.054;4.110;2023-10-13T17:39:04;17.55;;;10.10;;
73239;SDS011;61452;40.054;4.110;2023-10-13T17:44:10;20.08;;;10.55;;
73239;SDS011;61452;40.054;4.110;2023-10-13T17:49:12;26.70;;;9.90;;
73239;SDS011;61452;40.054;4.110;2023-10-13T17:54:15;20.15;;;10.23;;
73239;SDS011;61452;40.054;4.110;2023-10-13T17:59:17;18.08;;;10.55;;
73239;SDS011;61452;40.054;4.110;2023-10-13T18:04:19;18.33;;;10.68;;
73239;SDS011;61452;40.054;4.110;2023-10-13T18:09:22;25.45;;;11.13;;
73239;SDS011;61452;40.054;4.110;2023-10-13T18:19:27;17.77;;;11.13;;
73239;SDS011;61452;40.054;4.110;2023-10-13T18:24:32;31.08;;;15.45;;
73239;SDS011;61452;40.054;4.110;2023-10-13T18:29:34;21.13;;;11.63;;
73239;SDS011;61452;40.054;4.110;2023-10-13T18:34:38;20.10;;;11.07;;
73239;SDS011;61452;40.054;4.110;2023-10-13T18:39:41;21.70;;;10.70;;
73239;SDS011;61452;40.054;4.110;2023-10-13T18:44:43;21.90;;;11.40;;
73239;SDS011;61452;40.054;4.110;2023-10-13T18:49:46;18.40;;;10.38;;
73239;SDS011;61452;40.054;4.110;2023-10-13T18:54:48;18.45;;;10.18;;
73239;SDS011;61452;40.054;4.110;2023-10-13T18:59:51;13.95;;;8.35;;
73239;SDS011;61452;40.054;4.110;2023-10-13T19:04:56;16.52;;;9.52;;
73239;SDS011;61452;40.054;4.110;2023-10-13T19:10:00;15.65;;;8.63;;
73239;SDS011;61452;40.054;4.110;2023-10-13T19:15:09;18.45;;;8.73;;
73239;SDS011;61452;40.054;4.110;2023-10-13T19:20:15;12.15;;;7.72;;
73239;SDS011;61452;40.054;4.110;2023-10-13T19:25:18;11.15;;;7.32;;
73239;SDS011;61452;40.054;4.110;2023-10-13T19:30:20;12.23;;;7.05;;
73239;SDS011;61452;40.054;4.110;2023-10-13T19:35:23;11.32;;;6.72;;
73239;SDS011;61452;40.054;4.110;2023-10-13T19:40:25;9.73;;;7.20;;
73239;SDS011;61452;40.054;4.110;2023-10-13T19:45:29;13.23;;;7.22;;
73239;SDS011;61452;40.054;4.110;2023-10-13T19:50:31;12.55;;;7.13;;
73239;SDS011;61452;40.054;4.110;2023-10-13T19:55:41;9.88;;;6.68;;
73239;SDS011;61452;40.054;4.110;2023-10-13T20:00:44;10.38;;;7.22;;
73239;SDS011;61452;40.054;4.110;2023-10-13T20:05:46;15.48;;;6.70;;
73239;SDS011;61452;40.054;4.110;2023-10-13T20:10:49;12.23;;;7.20;;
73239;SDS011;61452;40.054;4.110;2023-10-13T20:15:51;10.95;;;6.50;;
73239;SDS011;61452;40.054;4.110;2023-10-13T20:20:53;11.82;;;6.82;;
73239;SDS011;61452;40.054;4.110;2023-10-13T20:25:55;13.02;;;7.38;;
73239;SDS011;61452;40.054;4.110;2023-10-13T20:30:59;11.05;;;6.03;;
73239;SDS011;61452;40.054;4.110;2023-10-13T20:36:03;9.15;;;6.75;;
73239;SDS011;61452;40.054;4.110;2023-10-13T20:41:06;10.15;;;6.32;;
73239;SDS011;61452;40.054;4.110;2023-10-13T20:46:09;11.93;;;6.47;;
73239;SDS011;61452;40.054;4.110;2023-10-13T20:51:11;9.68;;;6.40;;
73239;SDS011;61452;40.054;4.110;2023-10-13T20:56:15;10.77;;;7.13;;
73239;SDS011;61452;40.054;4.110;2023-10-13T21:01:17;11.32;;;6.65;;
73239;SDS011;61452;40.054;4.110;2023-10-13T21:06:23;10.55;;;6.55;;
73239;SDS011;61452;40.054;4.110;2023-10-13T21:11:25;9.35;;;6.10;;
73239;SDS011;61452;40.054;4.110;2023-10-13T21:16:30;10.88;;;6.60;;
73239;SDS011;61452;40.054;4.110;2023-10-13T21:21:33;11.00;;;7.07;;
73239;SDS011;61452;40.054;4.110;2023-10-13T21:26:39;13.95;;;7.10;;
73239;SDS011;61452;40.054;4.110;2023-10-13T21:31:41;36.35;;;24.52;;
73239;SDS011;61452;40.054;4.110;2023-10-13T21:36:44;51.55;;;34.78;;
73239;SDS011;61452;40.054;4.110;2023-10-13T21:41:46;14.85;;;11.77;;
73239;SDS011;61452;40.054;4.110;2023-10-13T21:51:51;33.38;;;22.20;;
73239;SDS011;61452;40.054;4.110;2023-10-13T21:56:53;14.43;;;9.70;;
73239;SDS011;61452;40.054;4.110;2023-10-13T22:01:56;15.15;;;7.82;;
73239;SDS011;61452;40.054;4.110;2023-10-13T22:06:58;10.73;;;7.47;;
73239;SDS011;61452;40.054;4.110;2023-10-13T22:12:03;11.15;;;7.10;;
73239;SDS011;61452;40.054;4.110;2023-10-13T22:17:07;11.43;;;7.68;;
73239;SDS011;61452;40.054;4.110;2023-10-13T22:22:09;10.95;;;7.22;;
73239;SDS011;61452;40.054;4.110;2023-10-13T22:27:12;18.23;;;10.90;;
73239;SDS011;61452;40.054;4.110;2023-10-13T22:32:16;15.55;;;8.35;;
73239;SDS011;61452;40.054;4.110;2023-10-13T22:37:19;9.57;;;7.25;;
73239;SDS011;61452;40.054;4.110;2023-10-13T22:42:21;14.05;;;7.93;;
73239;SDS011;61452;40.054;4.110;2023-10-13T22:47:23;15.45;;;8.27;;
73239;SDS011;61452;40.054;4.110;2023-10-13T22:52:25;13.30;;;7.90;;
73239;SDS011;61452;40.054;4.110;2023-10-13T22:57:27;11.98;;;7.18;;
73239;SDS011;61452;40.054;4.110;2023-10-13T23:02:32;10.38;;;7.30;;
73239;SDS011;61452;40.054;4.110;2023-10-13T23:07:35;10.93;;;6.95;;
73239;SDS011;61452;40.054;4.110;2023-10-13T23:12:41;11.55;;;7.38;;
73239;SDS011;61452;40.054;4.110;2023-10-13T23:17:43;10.35;;;7.35;;
73239;SDS011;61452;40.054;4.110;2023-10-13T23:22:46;10.55;;;7.30;;
73239;SDS011;61452;40.054;4.110;2023-10-13T23:27:48;9.48;;;7.07;;
73239;SDS011;61452;40.054;4.110;2023-10-13T23:32:50;12.60;;;7.38;;
73239;SDS011;61452;40.054;4.110;2023-10-13T23:37:53;9.10;;;7.55;;
73239;SDS011;61452;40.054;4.110;2023-10-13T23:42:55;9.90;;;7.00;;
73239;SDS011;61452;40.054;4.110;2023-10-13T23:47:58;13.63;;;7.43;;
73239;SDS011;61452;40.054;4.110;2023-10-13T23:53:01;12.25;;;6.38;;
73239;SDS011;61452;40.054;4.110;2023-10-13T23:58:05;12.80;;;6.40;;
